createdAt,value
2023-04-16T00:00:39.918Z,73.20
2023-04-16T00:02:12.122Z,73.30
2023-04-16T00:03:44.126Z,73.30
2023-04-16T00:05:15.903Z,73.40
2023-04-16T00:06:47.536Z,73.20
2023-04-16T00:08:19.216Z,73.40
2023-04-16T00:09:54.426Z,73.40
2023-04-16T00:11:26.163Z,73.40
2023-04-16T00:12:57.897Z,73.40
2023-04-16T00:14:30.207Z,73.60
2023-04-16T00:16:01.884Z,73.60
2023-04-16T00:17:33.650Z,73.60
2023-04-16T00:19:05.484Z,73.70
2023-04-16T00:20:37.346Z,73.70
2023-04-16T00:22:09.048Z,73.60
2023-04-16T00:23:40.902Z,73.50
2023-04-16T00:25:13.820Z,73.60
2023-04-16T00:26:46.325Z,73.50
2023-04-16T00:28:18.019Z,73.50
2023-04-16T00:29:49.751Z,73.60
2023-04-16T00:31:32.844Z,73.60
2023-04-16T00:33:04.748Z,73.60
2023-04-16T00:34:36.561Z,73.60
2023-04-16T00:36:09.480Z,73.60
2023-04-16T00:37:41.240Z,73.70
2023-04-16T00:39:12.919Z,73.70
2023-04-16T00:40:44.668Z,73.60
2023-04-16T00:42:16.374Z,73.60
2023-04-16T00:43:48.115Z,73.70
2023-04-16T00:45:20.308Z,73.90
2023-04-16T00:46:52.123Z,74.00
2023-04-16T00:48:24.328Z,74.10
2023-04-16T00:49:56.008Z,74.10
2023-04-16T00:51:27.967Z,74.00
2023-04-16T00:53:00.368Z,73.90
2023-04-16T00:54:32.273Z,73.80
2023-04-16T00:56:06.287Z,73.90
2023-04-16T00:57:38.022Z,73.90
2023-04-16T00:59:10.680Z,73.90
2023-04-16T01:00:42.668Z,73.80
2023-04-16T01:02:14.520Z,73.90
2023-04-16T01:03:48.553Z,73.80
2023-04-16T01:05:21.055Z,73.80
2023-04-16T01:06:52.753Z,74.00
2023-04-16T01:08:24.940Z,74.00
2023-04-16T01:09:56.911Z,73.90
2023-04-16T01:11:28.583Z,74.00
2023-04-16T01:13:00.424Z,74.10
2023-04-16T01:14:36.127Z,73.90
2023-04-16T01:16:10.320Z,73.80
2023-04-16T01:17:42.059Z,73.80
2023-04-16T01:19:13.747Z,74.00
2023-04-16T01:20:46.857Z,74.20
2023-04-16T01:22:18.598Z,74.20
2023-04-16T01:23:50.363Z,74.20
2023-04-16T01:25:22.048Z,74.00
2023-04-16T01:26:53.759Z,74.00
2023-04-16T01:28:25.576Z,73.90
2023-04-16T01:29:57.231Z,73.90
2023-04-16T01:31:41.062Z,73.90
2023-04-16T01:33:26.719Z,74.20
2023-04-16T01:34:58.421Z,74.10
2023-04-16T01:36:30.153Z,74.00
2023-04-16T01:38:03.006Z,74.20
2023-04-16T01:39:34.717Z,74.00
2023-04-16T01:41:06.559Z,74.10
2023-04-16T01:42:38.664Z,74.30
2023-04-16T01:44:10.434Z,74.20
2023-04-16T01:45:42.823Z,74.30
2023-04-16T01:47:17.023Z,74.30
2023-04-16T01:48:48.741Z,74.30
2023-04-16T01:50:21.211Z,74.30
2023-04-16T01:51:53.313Z,74.40
2023-04-16T01:53:24.975Z,74.40
2023-04-16T01:54:56.726Z,74.70
2023-04-16T01:56:28.525Z,74.60
2023-04-16T01:58:00.240Z,74.60
2023-04-16T01:59:35.978Z,74.50
2023-04-16T02:01:07.717Z,74.60
2023-04-16T02:02:40.038Z,74.60
2023-04-16T02:04:12.568Z,74.80
2023-04-16T02:05:44.501Z,74.90
2023-04-16T02:07:16.203Z,74.80
2023-04-16T02:08:47.923Z,74.70
2023-04-16T02:10:19.825Z,74.70
2023-04-16T02:11:52.476Z,74.90
2023-04-16T02:13:25.928Z,74.90
2023-04-16T02:14:57.651Z,75.10
2023-04-16T02:16:31.589Z,75.10
2023-04-16T02:18:10.389Z,75.20
2023-04-16T02:19:42.410Z,75.20
2023-04-16T02:21:15.058Z,75.30
2023-04-16T02:22:48.048Z,75.30
2023-04-16T02:24:23.066Z,75.50
2023-04-16T02:25:54.983Z,75.40
2023-04-16T02:27:26.688Z,75.40
2023-04-16T02:29:03.698Z,75.50
2023-04-16T02:30:43.327Z,75.60
2023-04-16T02:32:16.310Z,75.50
2023-04-16T02:33:50.225Z,75.40
2023-04-16T02:35:21.902Z,75.60
2023-04-16T02:36:54.963Z,75.40
2023-04-16T02:38:26.839Z,75.40
2023-04-16T02:39:59.214Z,75.60
2023-04-16T02:41:30.977Z,75.60
2023-04-16T02:43:02.760Z,75.50
2023-04-16T02:44:34.409Z,75.70
2023-04-16T02:46:06.185Z,75.80
2023-04-16T02:47:37.904Z,75.80
2023-04-16T02:49:09.870Z,75.60
2023-04-16T02:50:41.845Z,75.80
2023-04-16T02:52:15.510Z,75.80
2023-04-16T02:53:47.446Z,75.90
2023-04-16T02:55:19.595Z,75.90
2023-04-16T02:56:51.349Z,76.00
2023-04-16T02:58:24.581Z,75.90
2023-04-16T02:59:56.537Z,76.00
2023-04-16T03:01:28.982Z,76.10
2023-04-16T03:03:00.848Z,76.10
2023-04-16T03:04:33.341Z,76.20
2023-04-16T03:06:05.326Z,76.20
2023-04-16T03:07:39.102Z,76.10
2023-04-16T03:09:10.973Z,76.10
2023-04-16T03:10:43.781Z,76.10
2023-04-16T03:12:15.496Z,76.30
2023-04-16T03:13:47.208Z,76.30
2023-04-16T03:15:18.916Z,76.30
2023-04-16T03:16:50.556Z,76.40
2023-04-16T03:18:22.271Z,76.40
2023-04-16T03:19:54.839Z,76.30
2023-04-16T03:21:27.744Z,76.40
2023-04-16T03:22:59.434Z,76.30
2023-04-16T03:24:31.189Z,76.50
2023-04-16T03:26:02.893Z,76.50
2023-04-16T03:27:35.182Z,76.50
2023-04-16T03:29:07.478Z,76.70
2023-04-16T03:30:39.298Z,76.60
2023-04-16T03:32:12.600Z,76.80
2023-04-16T03:33:44.287Z,76.70
2023-04-16T03:35:16.349Z,76.70
2023-04-16T03:36:48.005Z,76.50
2023-04-16T03:38:20.057Z,76.30
2023-04-16T03:39:51.854Z,76.40
2023-04-16T03:41:23.576Z,76.40
2023-04-16T03:42:55.571Z,76.80
2023-04-16T03:44:27.251Z,76.80
2023-04-16T03:45:58.944Z,76.90
2023-04-16T03:47:31.103Z,76.90
2023-04-16T03:49:06.183Z,77.00
2023-04-16T03:50:38.794Z,76.90
2023-04-16T03:52:13.010Z,76.80
2023-04-16T03:53:45.159Z,77.20
2023-04-16T03:55:18.338Z,77.00
2023-04-16T03:56:51.951Z,77.20
2023-04-16T03:58:23.643Z,77.10
2023-04-16T03:59:56.433Z,77.20
2023-04-16T04:01:29.087Z,77.20
2023-04-16T04:03:01.033Z,77.30
2023-04-16T04:04:33.008Z,77.30
2023-04-16T04:06:08.997Z,77.30
2023-04-16T04:07:40.703Z,77.30
2023-04-16T04:09:12.671Z,77.10
2023-04-16T04:10:45.728Z,77.10
2023-04-16T04:12:19.081Z,77.10
2023-04-16T04:13:51.475Z,77.10
2023-04-16T04:15:23.761Z,77.10
2023-04-16T04:16:55.558Z,77.10
2023-04-16T04:18:27.216Z,77.10
2023-04-16T04:20:01.422Z,77.00
2023-04-16T04:21:35.359Z,77.20
2023-04-16T04:23:08.503Z,77.50
2023-04-16T04:24:40.691Z,77.10
2023-04-16T04:26:12.438Z,77.30
2023-04-16T04:27:45.515Z,77.30
2023-04-16T04:29:17.298Z,77.30
2023-04-16T04:30:48.981Z,77.50
2023-04-16T04:32:20.802Z,77.30
2023-04-16T04:33:54.053Z,77.30
2023-04-16T04:35:26.195Z,77.40
2023-04-16T04:36:58.714Z,77.50
2023-04-16T04:38:31.397Z,77.50
2023-04-16T04:40:03.572Z,77.50
2023-04-16T04:41:36.028Z,77.40
2023-04-16T04:43:08.393Z,77.60
2023-04-16T04:44:40.133Z,77.60
2023-04-16T04:46:13.316Z,77.50
2023-04-16T04:47:46.017Z,77.50
2023-04-16T04:49:17.827Z,77.70
2023-04-16T04:50:49.547Z,77.70
2023-04-16T04:52:21.248Z,77.70
2023-04-16T04:53:54.272Z,77.70
2023-04-16T04:55:26.267Z,77.70
2023-04-16T04:56:58.136Z,77.60
2023-04-16T04:58:29.880Z,77.70
2023-04-16T05:00:03.907Z,77.80
2023-04-16T05:01:43.811Z,77.80
2023-04-16T05:03:21.728Z,77.70
2023-04-16T05:04:53.553Z,77.70
2023-04-16T05:06:26.024Z,77.80
2023-04-16T05:07:58.979Z,77.80
2023-04-16T05:09:30.766Z,77.60
2023-04-16T05:11:02.468Z,77.60
2023-04-16T05:12:34.266Z,77.70
2023-04-16T05:14:05.945Z,77.80
2023-04-16T05:15:37.854Z,78.10
2023-04-16T05:17:10.773Z,78.00
2023-04-16T05:18:42.647Z,78.00
2023-04-16T05:20:14.480Z,78.00
2023-04-16T05:21:46.236Z,78.00
2023-04-16T05:23:17.893Z,78.10
2023-04-16T05:24:49.662Z,78.10
2023-04-16T05:26:21.507Z,78.00
2023-04-16T05:27:53.190Z,78.20
2023-04-16T05:29:24.903Z,78.10
2023-04-16T05:30:56.667Z,78.10
2023-04-16T05:32:28.515Z,78.10
2023-04-16T05:34:00.302Z,78.10
2023-04-16T05:35:31.995Z,78.10
2023-04-16T05:37:03.748Z,78.20
2023-04-16T05:38:35.413Z,78.30
2023-04-16T05:40:08.026Z,78.10
2023-04-16T05:41:39.677Z,78.20
2023-04-16T05:43:11.346Z,78.00
2023-04-16T05:44:43.020Z,78.20
2023-04-16T05:46:14.734Z,78.30
2023-04-16T05:47:46.534Z,78.40
2023-04-16T05:49:22.091Z,78.30
2023-04-16T05:50:53.868Z,78.20
2023-04-16T05:52:25.625Z,78.20
2023-04-16T05:53:57.315Z,78.20
2023-04-16T05:55:29.058Z,78.20
2023-04-16T05:57:01.815Z,78.20
2023-04-16T05:58:33.812Z,78.40
2023-04-16T06:00:06.236Z,78.50
2023-04-16T06:01:43.715Z,78.30
2023-04-16T06:03:15.775Z,78.10
2023-04-16T06:04:47.575Z,78.20
2023-04-16T06:06:19.537Z,78.10
2023-04-16T06:07:51.246Z,78.00
2023-04-16T06:09:22.950Z,78.00
2023-04-16T06:10:54.681Z,78.00
2023-04-16T06:12:27.044Z,78.10
2023-04-16T06:13:58.783Z,78.20
2023-04-16T06:15:30.634Z,78.30
2023-04-16T06:17:02.352Z,78.40
2023-04-16T06:18:34.120Z,78.30
2023-04-16T06:20:06.650Z,78.20
2023-04-16T06:21:38.499Z,78.30
2023-04-16T06:23:10.612Z,78.10
2023-04-16T06:24:42.426Z,78.30
2023-04-16T06:26:14.127Z,78.40
2023-04-16T06:27:45.900Z,78.30
2023-04-16T06:29:22.535Z,78.20
2023-04-16T06:30:57.527Z,78.20
2023-04-16T06:32:29.319Z,78.40
2023-04-16T06:34:01.250Z,78.20
2023-04-16T06:35:32.976Z,78.00
2023-04-16T06:37:04.788Z,78.00
2023-04-16T06:38:37.053Z,78.10
2023-04-16T06:40:09.353Z,78.00
2023-04-16T06:41:41.277Z,78.40
2023-04-16T06:43:13.036Z,78.50
2023-04-16T06:44:44.776Z,78.30
2023-04-16T06:46:16.521Z,78.30
2023-04-16T06:47:48.379Z,78.10
2023-04-16T06:49:21.545Z,78.40
2023-04-16T06:50:53.320Z,78.30
2023-04-16T06:52:25.306Z,78.30
2023-04-16T06:53:56.971Z,78.40
2023-04-16T06:55:28.706Z,78.50
2023-04-16T06:57:00.373Z,78.30
2023-04-16T06:58:32.855Z,78.50
2023-04-16T07:00:05.200Z,78.40
2023-04-16T07:01:37.019Z,78.50
2023-04-16T07:03:08.852Z,78.60
2023-04-16T07:04:40.686Z,78.50
2023-04-16T07:06:12.398Z,78.70
2023-04-16T07:07:44.090Z,78.50
2023-04-16T07:09:17.807Z,78.50
2023-04-16T07:10:49.520Z,78.70
2023-04-16T07:12:22.597Z,78.90
2023-04-16T07:13:54.695Z,78.70
2023-04-16T07:15:26.562Z,78.90
2023-04-16T07:16:58.311Z,79.00
2023-04-16T07:18:30.135Z,78.90
2023-04-16T07:20:01.884Z,79.00
2023-04-16T07:21:33.649Z,78.90
2023-04-16T07:23:05.632Z,79.00
2023-04-16T07:24:37.360Z,78.90
2023-04-16T07:26:09.177Z,79.10
2023-04-16T07:27:41.126Z,78.80
2023-04-16T07:29:13.452Z,78.80
2023-04-16T07:30:45.348Z,78.90
2023-04-16T07:32:17.226Z,78.90
2023-04-16T07:33:49.031Z,78.70
2023-04-16T07:35:21.050Z,78.70
2023-04-16T07:36:52.746Z,78.80
2023-04-16T07:38:24.465Z,78.90
2023-04-16T07:39:57.553Z,79.00
2023-04-16T07:41:32.156Z,78.90
2023-04-16T07:43:03.947Z,78.80
2023-04-16T07:44:35.728Z,78.80
2023-04-16T07:46:07.482Z,78.70
2023-04-16T07:47:39.296Z,78.50
2023-04-16T07:49:11.159Z,78.70
2023-04-16T07:50:46.041Z,78.80
2023-04-16T07:52:17.990Z,78.90
2023-04-16T07:53:49.709Z,79.10
2023-04-16T07:55:21.534Z,79.10
2023-04-16T07:56:53.227Z,79.20
2023-04-16T07:58:24.926Z,79.30
2023-04-16T07:59:56.584Z,79.10
2023-04-16T08:01:28.340Z,79.00
2023-04-16T08:03:00.304Z,79.30
2023-04-16T08:04:33.551Z,79.30
2023-04-16T08:06:05.789Z,79.50
2023-04-16T08:07:37.577Z,79.50
2023-04-16T08:09:09.499Z,79.20
2023-04-16T08:10:41.404Z,79.40
2023-04-16T08:12:13.143Z,79.30
2023-04-16T08:13:44.902Z,79.70
2023-04-16T08:15:16.717Z,79.70
2023-04-16T08:16:48.541Z,79.70
2023-04-16T08:18:20.275Z,79.40
2023-04-16T08:19:52.025Z,79.80
2023-04-16T08:21:23.736Z,79.60
2023-04-16T08:22:55.518Z,79.50
2023-04-16T08:24:27.166Z,79.80
2023-04-16T08:25:58.909Z,79.50
2023-04-16T08:27:30.612Z,79.30
2023-04-16T08:29:02.273Z,79.50
2023-04-16T08:30:34.103Z,79.30
2023-04-16T08:32:06.445Z,79.30
2023-04-16T08:33:38.173Z,79.40
2023-04-16T08:35:10.472Z,79.50
2023-04-16T08:36:42.234Z,79.70
2023-04-16T08:38:13.994Z,79.60
2023-04-16T08:39:46.077Z,79.50
2023-04-16T08:41:18.301Z,79.40
2023-04-16T08:42:53.739Z,79.50
2023-04-16T08:44:33.103Z,79.50
2023-04-16T08:46:06.027Z,79.60
2023-04-16T08:47:38.610Z,79.60
2023-04-16T08:49:18.228Z,79.40
2023-04-16T08:50:53.043Z,79.40
2023-04-16T08:52:31.257Z,79.10
2023-04-16T08:54:05.399Z,79.40
2023-04-16T08:55:38.610Z,79.30
2023-04-16T08:57:12.399Z,79.30
2023-04-16T08:58:46.088Z,79.20
2023-04-16T09:00:21.166Z,79.00
2023-04-16T09:01:57.947Z,79.00
2023-04-16T09:03:35.570Z,78.90
2023-04-16T09:05:09.467Z,79.20
2023-04-16T09:06:42.338Z,79.20
2023-04-16T09:08:14.176Z,78.90
2023-04-16T09:09:48.439Z,79.00
2023-04-16T09:11:21.065Z,78.80
2023-04-16T09:12:56.096Z,78.80
2023-04-16T09:14:27.743Z,78.70
2023-04-16T09:16:00.157Z,78.90
2023-04-16T09:17:32.119Z,78.80
2023-04-16T09:19:04.697Z,79.00
2023-04-16T09:20:36.394Z,79.10
2023-04-16T09:22:08.810Z,79.10
2023-04-16T09:23:41.147Z,79.20
2023-04-16T09:25:13.130Z,79.10
2023-04-16T09:26:49.831Z,78.90
2023-04-16T09:28:44.503Z,79.00
2023-04-16T09:30:24.343Z,79.40
2023-04-16T09:32:07.050Z,79.10
2023-04-16T09:33:38.856Z,79.00
2023-04-16T09:35:10.721Z,79.10
2023-04-16T09:36:42.469Z,79.10
2023-04-16T09:38:14.792Z,79.10
2023-04-16T09:39:57.868Z,79.10
2023-04-16T09:41:35.943Z,79.10
2023-04-16T09:43:16.309Z,79.10
2023-04-16T09:44:52.686Z,79.10
2023-04-16T09:46:35.469Z,79.10
2023-04-16T09:48:07.181Z,79.10
2023-04-16T09:49:42.329Z,79.10
2023-04-16T09:51:13.978Z,79.20
2023-04-16T09:52:49.698Z,79.20
2023-04-16T09:54:21.361Z,79.10
2023-04-16T09:55:57.282Z,79.20
2023-04-16T09:57:29.779Z,79.10
2023-04-16T09:59:01.481Z,79.00
2023-04-16T10:00:33.289Z,78.90
2023-04-16T10:02:15.573Z,78.60
2023-04-16T10:03:50.123Z,78.70
2023-04-16T10:05:21.913Z,78.50
2023-04-16T10:07:06.535Z,78.50
2023-04-16T10:08:43.808Z,78.10
2023-04-16T10:10:15.607Z,78.20
2023-04-16T10:11:49.616Z,78.30
2023-04-16T10:13:21.372Z,78.20
2023-04-16T10:14:53.210Z,77.90
2023-04-16T10:16:25.636Z,77.90
2023-04-16T10:17:58.692Z,77.90
2023-04-16T10:19:33.343Z,77.70
2023-04-16T10:21:06.010Z,77.60
2023-04-16T10:22:37.991Z,77.40
2023-04-16T10:24:09.890Z,77.40
2023-04-16T10:25:42.892Z,77.20
2023-04-16T10:27:14.588Z,77.20
2023-04-16T10:28:46.312Z,77.20
2023-04-16T10:30:19.393Z,77.20
2023-04-16T10:31:52.593Z,77.40
2023-04-16T10:33:28.028Z,77.40
2023-04-16T10:34:59.745Z,76.90
2023-04-16T10:36:35.895Z,76.80
2023-04-16T10:38:27.722Z,76.60
2023-04-16T10:39:59.978Z,76.40
2023-04-16T10:41:33.311Z,76.40
2023-04-16T10:43:07.144Z,76.50
2023-04-16T10:44:43.468Z,76.60
2023-04-16T10:46:22.549Z,76.50
2023-04-16T10:47:57.599Z,76.60
2023-04-16T10:49:29.745Z,76.40
2023-04-16T10:51:01.715Z,76.20
2023-04-16T10:52:33.762Z,76.20
2023-04-16T10:54:09.424Z,76.00
2023-04-16T10:55:41.301Z,76.00
2023-04-16T10:57:17.775Z,76.20
2023-04-16T10:58:49.683Z,76.00
2023-04-16T11:00:24.444Z,76.00
2023-04-16T11:01:59.143Z,75.70
2023-04-16T11:03:32.363Z,75.50
2023-04-16T11:05:04.621Z,75.40
2023-04-16T11:06:37.635Z,75.20
2023-04-16T11:08:18.876Z,75.10
2023-04-16T11:10:03.063Z,74.90
2023-04-16T11:11:39.753Z,75.00
2023-04-16T11:13:13.038Z,75.10
2023-04-16T11:15:04.261Z,75.00
2023-04-16T11:16:40.243Z,74.80
2023-04-16T11:18:11.962Z,74.60
2023-04-16T11:19:44.078Z,74.40
2023-04-16T11:21:16.742Z,74.40
2023-04-16T11:22:49.383Z,74.70
2023-04-16T11:24:21.042Z,74.50
2023-04-16T11:25:57.050Z,74.30
2023-04-16T11:27:31.246Z,74.00
2023-04-16T11:29:14.199Z,74.00
2023-04-16T11:30:46.078Z,74.00
2023-04-16T11:32:22.555Z,74.10
2023-04-16T11:33:57.440Z,74.00
2023-04-16T11:35:29.369Z,73.90
2023-04-16T11:37:01.205Z,73.80
2023-04-16T11:38:37.194Z,73.70
2023-04-16T11:40:12.435Z,73.60
2023-04-16T11:41:45.840Z,73.40
2023-04-16T11:43:17.561Z,73.60
2023-04-16T11:44:54.272Z,73.70
2023-04-16T11:46:39.013Z,73.80
2023-04-16T11:48:11.194Z,73.80
2023-04-16T11:49:43.088Z,73.90
2023-04-16T11:51:15.332Z,73.80
2023-04-16T11:52:48.045Z,74.00
2023-04-16T11:54:20.915Z,73.80
2023-04-16T11:55:52.739Z,73.80
2023-04-16T11:57:29.176Z,73.60
2023-04-16T11:59:08.649Z,73.30
2023-04-16T12:00:41.502Z,73.20
2023-04-16T12:03:49.554Z,72.90
2023-04-16T12:05:35.580Z,72.80
2023-04-16T12:07:09.126Z,72.70
2023-04-16T12:08:40.849Z,72.80
2023-04-16T12:10:12.716Z,72.80
2023-04-16T12:11:44.497Z,72.80
2023-04-16T12:13:17.592Z,72.70
2023-04-16T12:14:54.324Z,72.60
2023-04-16T12:16:27.181Z,72.50
2023-04-16T12:18:08.320Z,72.30
2023-04-16T12:19:52.173Z,72.30
2023-04-16T12:21:23.849Z,72.40
2023-04-16T12:22:58.114Z,72.40
2023-04-16T12:24:32.331Z,72.40
2023-04-16T12:26:10.589Z,72.50
2023-04-16T12:27:49.619Z,72.50
2023-04-16T12:29:25.932Z,72.40
2023-04-16T12:30:58.032Z,72.40
2023-04-16T12:32:29.977Z,72.70
2023-04-16T12:34:02.762Z,72.90
2023-04-16T12:35:34.652Z,72.70
2023-04-16T12:37:09.511Z,72.70
2023-04-16T12:38:41.225Z,72.60
2023-04-16T12:40:12.995Z,72.80
2023-04-16T12:41:45.058Z,72.80
2023-04-16T12:43:16.856Z,72.80
2023-04-16T12:44:48.574Z,72.80
2023-04-16T12:46:20.388Z,72.60
2023-04-16T12:47:53.758Z,72.60
2023-04-16T12:49:26.015Z,72.40
2023-04-16T12:50:57.716Z,72.30
2023-04-16T12:52:29.541Z,72.10
2023-04-16T12:54:02.843Z,72.00
2023-04-16T12:55:34.655Z,72.00
2023-04-16T12:57:06.346Z,71.90
2023-04-16T12:58:38.039Z,71.80
2023-04-16T13:00:11.082Z,71.80
2023-04-16T13:01:42.834Z,71.80
2023-04-16T13:03:15.006Z,71.70
2023-04-16T13:04:46.803Z,71.70
2023-04-16T13:06:20.256Z,71.80
2023-04-16T13:07:51.954Z,71.70
2023-04-16T13:09:23.697Z,71.90
2023-04-16T13:10:55.516Z,72.10
2023-04-16T13:12:27.582Z,72.20
2023-04-16T13:13:59.316Z,72.50
2023-04-16T13:15:31.075Z,72.50
2023-04-16T13:17:03.920Z,72.50
2023-04-16T13:18:36.862Z,72.40
2023-04-16T13:20:09.183Z,72.50
2023-04-16T13:21:40.969Z,72.50
2023-04-16T13:23:13.102Z,72.50
2023-04-16T13:24:44.904Z,72.50
2023-04-16T13:26:17.365Z,72.40
2023-04-16T13:27:49.074Z,72.40
2023-04-16T13:29:20.820Z,72.40
2023-04-16T13:30:53.164Z,72.30
2023-04-16T13:32:24.959Z,72.40
2023-04-16T13:33:56.754Z,72.50
2023-04-16T13:35:29.643Z,72.40
2023-04-16T13:37:01.351Z,72.30
2023-04-16T13:38:32.998Z,72.20
2023-04-16T13:40:05.243Z,72.20
2023-04-16T13:41:40.381Z,72.10
2023-04-16T13:43:13.694Z,71.90
2023-04-16T13:44:48.782Z,71.80
2023-04-16T13:46:20.604Z,71.70
2023-04-16T13:47:52.381Z,71.70
2023-04-16T13:49:24.069Z,71.80
2023-04-16T13:50:56.281Z,71.70
2023-04-16T13:52:29.410Z,71.70
2023-04-16T13:54:02.258Z,71.60
2023-04-16T13:55:36.297Z,71.50
2023-04-16T13:57:08.441Z,71.40
2023-04-16T13:58:41.348Z,71.40
2023-04-16T14:00:14.094Z,71.50
2023-04-16T14:01:45.800Z,71.40
2023-04-16T14:03:17.627Z,71.30
2023-04-16T14:04:49.553Z,71.40
2023-04-16T14:06:21.407Z,71.40
2023-04-16T14:07:53.131Z,71.50
2023-04-16T14:09:24.858Z,71.70
2023-04-16T14:10:57.739Z,71.80
2023-04-16T14:12:31.497Z,71.80
2023-04-16T14:14:03.256Z,71.90
2023-04-16T14:15:35.286Z,72.00
2023-04-16T14:17:07.499Z,71.90
2023-04-16T14:18:43.107Z,71.90
2023-04-16T14:20:15.572Z,72.00
2023-04-16T14:21:47.607Z,72.10
2023-04-16T14:23:20.570Z,72.00
2023-04-16T14:24:52.462Z,71.90
2023-04-16T14:26:24.116Z,71.70
2023-04-16T14:27:55.993Z,71.70
2023-04-16T14:29:27.789Z,71.70
2023-04-16T14:31:01.246Z,71.80
2023-04-16T14:32:33.373Z,71.80
2023-04-16T14:34:05.385Z,71.80
2023-04-16T14:35:37.357Z,71.80
2023-04-16T14:37:09.072Z,71.80
2023-04-16T14:38:43.143Z,71.80
2023-04-16T14:40:15.237Z,71.80
2023-04-16T14:41:48.247Z,71.80
2023-04-16T14:43:20.747Z,71.80
2023-04-16T14:44:56.037Z,71.80
2023-04-16T14:46:28.252Z,71.90
2023-04-16T14:47:59.961Z,72.00
2023-04-16T14:49:32.428Z,72.00
2023-04-16T14:51:04.441Z,72.10
2023-04-16T14:52:36.402Z,72.10
2023-04-16T14:54:08.048Z,72.20
2023-04-16T14:55:40.228Z,72.30
2023-04-16T14:57:13.655Z,72.40
2023-04-16T14:58:46.050Z,72.50
2023-04-16T15:00:18.685Z,72.60
2023-04-16T15:01:50.850Z,72.70
2023-04-16T15:03:24.033Z,72.80
2023-04-16T15:04:55.890Z,72.90
2023-04-16T15:06:28.112Z,73.20
2023-04-16T15:08:00.485Z,73.20
2023-04-16T15:09:32.340Z,73.20
2023-04-16T15:11:03.978Z,73.30
2023-04-16T15:12:35.641Z,73.60
2023-04-16T15:14:07.522Z,73.50
2023-04-16T15:15:39.216Z,73.60
2023-04-16T15:17:10.937Z,73.80
2023-04-16T15:18:42.628Z,73.70
2023-04-16T15:20:14.569Z,73.80
2023-04-16T15:21:47.544Z,74.00
2023-04-16T15:23:20.869Z,74.10
2023-04-16T15:24:53.906Z,74.00
2023-04-16T15:26:26.022Z,74.30
2023-04-16T15:27:57.732Z,74.60
2023-04-16T15:29:29.440Z,74.50
2023-04-16T15:31:01.268Z,74.40
2023-04-16T15:32:33.074Z,74.60
2023-04-16T15:34:04.785Z,74.50
2023-04-16T15:35:38.756Z,74.60
2023-04-16T15:37:10.651Z,74.50
2023-04-16T15:38:42.653Z,74.40
2023-04-16T15:40:15.861Z,74.50
2023-04-16T15:42:00.820Z,74.50
2023-04-16T15:43:33.351Z,74.50
2023-04-16T15:45:05.405Z,74.60
2023-04-16T15:46:37.094Z,74.60
2023-04-16T15:48:09.045Z,74.60
2023-04-16T15:49:41.983Z,74.60
2023-04-16T15:51:13.766Z,74.50
2023-04-16T15:52:46.428Z,74.80
2023-04-16T15:54:18.442Z,74.70
2023-04-16T15:55:52.573Z,74.60
2023-04-16T15:57:24.224Z,74.80
2023-04-16T15:58:55.857Z,74.90
2023-04-16T16:00:27.930Z,74.80
2023-04-16T16:01:59.949Z,74.90
2023-04-16T16:03:33.065Z,75.00
2023-04-16T16:05:07.900Z,74.90
2023-04-16T16:06:39.816Z,75.00
2023-04-16T16:08:11.803Z,75.10
2023-04-16T16:09:43.579Z,75.00
2023-04-16T16:11:16.676Z,75.10
2023-04-16T16:12:48.837Z,75.10
2023-04-16T16:14:21.159Z,75.20
2023-04-16T16:15:53.109Z,75.20
2023-04-16T16:17:25.286Z,75.30
2023-04-16T16:18:56.997Z,75.30
2023-04-16T16:20:28.808Z,75.40
2023-04-16T16:22:01.608Z,75.50
2023-04-16T16:23:33.722Z,75.70
2023-04-16T16:25:05.909Z,75.70
2023-04-16T16:26:37.722Z,75.70
2023-04-16T16:28:09.394Z,75.90
2023-04-16T16:29:41.435Z,76.40
2023-04-16T16:31:13.220Z,76.50
2023-04-16T16:32:44.983Z,76.70
2023-04-16T16:34:20.922Z,76.80
2023-04-16T16:35:53.076Z,77.00
2023-04-16T16:37:24.743Z,77.20
2023-04-16T16:38:56.851Z,77.30
2023-04-16T16:40:28.857Z,77.70
2023-04-16T16:42:00.811Z,77.70
2023-04-16T16:43:32.558Z,77.70
2023-04-16T16:45:05.886Z,77.70
2023-04-16T16:46:38.322Z,77.70
2023-04-16T16:48:10.225Z,77.80
2023-04-16T16:49:41.940Z,77.80
2023-04-16T16:51:16.408Z,77.90
2023-04-16T16:52:48.108Z,78.00
2023-04-16T16:54:19.786Z,78.00
2023-04-16T16:55:51.436Z,78.00
2023-04-16T16:57:24.198Z,78.20
2023-04-16T16:58:56.004Z,78.20
2023-04-16T17:00:28.015Z,78.20
2023-04-16T17:01:59.670Z,78.00
2023-04-16T17:03:31.559Z,78.00
2023-04-16T17:05:04.379Z,78.20
2023-04-16T17:06:36.492Z,78.20
2023-04-16T17:08:08.217Z,78.10
2023-04-16T17:09:40.336Z,78.30
2023-04-16T17:11:11.943Z,78.30
2023-04-16T17:12:43.661Z,78.50
2023-04-16T17:14:15.521Z,78.40
2023-04-16T17:15:47.399Z,78.30
2023-04-16T17:17:19.166Z,78.30
2023-04-16T17:18:50.876Z,78.40
2023-04-16T17:20:22.653Z,78.50
2023-04-16T17:21:54.454Z,78.50
2023-04-16T17:23:26.167Z,78.50
2023-04-16T17:24:57.859Z,78.40
2023-04-16T17:26:29.778Z,78.60
2023-04-16T17:28:01.797Z,79.00
2023-04-16T17:29:34.166Z,78.90
2023-04-16T17:31:11.131Z,78.80
2023-04-16T17:32:42.904Z,78.80
2023-04-16T17:34:14.590Z,78.90
2023-04-16T17:35:46.450Z,79.00
2023-04-16T17:37:18.152Z,79.00
2023-04-16T17:38:50.521Z,78.90
2023-04-16T17:40:22.323Z,79.00
2023-04-16T17:41:58.226Z,79.00
2023-04-16T17:43:29.937Z,78.90
2023-04-16T17:45:02.042Z,78.90
2023-04-16T17:46:33.897Z,78.90
2023-04-16T17:48:06.297Z,78.90
2023-04-16T17:49:38.033Z,78.90
2023-04-16T17:51:15.330Z,78.90
2023-04-16T17:52:49.977Z,78.90
2023-04-16T17:54:21.652Z,78.90
2023-04-16T17:55:55.348Z,78.90
2023-04-16T17:57:28.401Z,78.90
2023-04-16T17:59:00.614Z,79.10
2023-04-16T18:00:32.622Z,79.00
2023-04-16T18:02:04.476Z,79.10
2023-04-16T18:03:37.007Z,79.00
2023-04-16T18:05:09.307Z,79.10
2023-04-16T18:06:40.990Z,79.10
2023-04-16T18:08:12.668Z,79.10
2023-04-16T18:09:44.347Z,79.10
2023-04-16T18:11:16.036Z,79.10
2023-04-16T18:12:47.751Z,79.10
2023-04-16T18:14:22.082Z,79.10
2023-04-16T18:15:54.027Z,79.10
2023-04-16T18:17:25.769Z,79.10
2023-04-16T18:18:57.600Z,79.10
2023-04-16T18:20:29.349Z,79.00
2023-04-16T18:22:01.124Z,79.10
2023-04-16T18:23:33.150Z,79.20
2023-04-16T18:25:05.297Z,79.20
2023-04-16T18:26:37.551Z,79.20
2023-04-16T18:28:09.582Z,79.20
2023-04-16T18:29:44.124Z,79.40
2023-04-16T18:31:20.652Z,79.40
2023-04-16T18:33:11.462Z,79.40
2023-04-16T18:34:44.686Z,79.40
2023-04-16T18:36:16.550Z,79.50
2023-04-16T18:37:48.254Z,79.50
2023-04-16T18:39:20.505Z,79.50
2023-04-16T18:40:52.595Z,79.60
2023-04-16T18:42:24.450Z,79.60
2023-04-16T18:43:56.121Z,79.60
2023-04-16T18:45:28.354Z,79.60
2023-04-16T18:47:00.334Z,79.50
2023-04-16T18:48:32.165Z,79.60
2023-04-16T18:50:04.107Z,79.60
2023-04-16T18:51:35.816Z,79.60
2023-04-16T18:53:07.620Z,79.60
2023-04-16T18:54:40.668Z,79.60
2023-04-16T18:56:12.556Z,79.60
2023-04-16T18:57:44.209Z,79.60
2023-04-16T18:59:15.952Z,79.60
2023-04-16T19:00:47.944Z,79.60
2023-04-16T19:02:19.751Z,79.50
2023-04-16T19:03:51.599Z,79.60
2023-04-16T19:05:23.338Z,79.60
2023-04-16T19:06:55.768Z,79.60
2023-04-16T19:08:27.474Z,79.60
2023-04-16T19:10:00.017Z,79.60
2023-04-16T19:11:32.701Z,79.60
2023-04-16T19:13:04.500Z,79.60
2023-04-16T19:14:36.452Z,79.60
2023-04-16T19:16:11.390Z,79.70
2023-04-16T19:17:46.658Z,79.70
2023-04-16T19:19:18.471Z,79.60
2023-04-16T19:20:50.176Z,79.70
2023-04-16T19:22:21.967Z,79.70
2023-04-16T19:23:53.891Z,79.70
2023-04-16T19:25:25.765Z,79.80
2023-04-16T19:26:57.444Z,79.80
2023-04-16T19:28:29.112Z,79.80
2023-04-16T19:30:00.799Z,79.90
2023-04-16T19:31:32.639Z,79.80
2023-04-16T19:33:04.480Z,79.90
2023-04-16T19:34:36.219Z,79.90
2023-04-16T19:36:08.116Z,79.90
2023-04-16T19:37:39.873Z,79.90
2023-04-16T19:39:11.790Z,79.90
2023-04-16T19:40:46.091Z,79.90
2023-04-16T19:42:17.745Z,79.90
2023-04-16T19:43:49.438Z,80.00
2023-04-16T19:45:25.516Z,80.00
2023-04-16T19:46:57.367Z,80.10
2023-04-16T19:48:37.051Z,80.00
2023-04-16T19:50:09.111Z,80.10
2023-04-16T19:51:40.820Z,80.10
2023-04-16T19:53:12.858Z,80.20
2023-04-16T19:54:44.664Z,80.30
2023-04-16T19:56:17.046Z,80.30
2023-04-16T19:57:48.808Z,80.30